Time;durP1;ratioP1;P1;durP2;ratioP2;P2;SDS_P1;SDS_P2;PMS_P1;PMS_P2;Temp;Humidity;BMP_temperature;BMP_pressure;BME280_temperature;BME280_humidity;BME280_pressure;Samples;Min_cycle;Max_cycle;Signal;HPM_P1;HPM_P2
2022/03/06 00:00:31;;;;;;;3.22;2.15;;;;;;;4.63;54.23;100172.77;1751646;80;22510;-64
2022/03/06 00:02:59;;;;;;;2.45;2.15;;;;;;;4.63;54.21;100174.95;1747691;80;21459;-64
2022/03/06 00:05:26;;;;;;;4.30;2.17;;;;;;;4.58;54.09;100179.34;1760990;80;21448;-65
2022/03/06 00:07:56;;;;;;;2.60;2.15;;;;;;;4.53;54.34;100175.91;1743139;80;21472;-66
2022/03/06 00:10:23;;;;;;;2.55;1.87;;;;;;;4.56;54.28;100175.88;1755055;80;21597;-65
2022/03/06 00:12:51;;;;;;;3.02;1.95;;;;;;;4.56;54.44;100177.19;1756073;80;21538;-65
2022/03/06 00:15:21;;;;;;;2.83;1.70;;;;;;;4.59;54.37;100178.89;1758917;80;21494;-64
2022/03/06 00:17:48;;;;;;;2.45;2.05;;;;;;;4.63;54.49;100172.34;1732966;80;21499;-66
2022/03/06 00:20:16;;;;;;;3.50;2.00;;;;;;;4.62;54.44;100177.12;1750753;80;20935;-63
2022/03/06 00:22:43;;;;;;;2.20;1.82;;;;;;;4.63;54.47;100176.67;1751125;80;21001;-64
2022/03/06 00:25:10;;;;;;;2.50;1.85;;;;;;;4.66;54.52;100174.05;1747830;80;21823;-64
2022/03/06 00:27:37;;;;;;;3.27;1.95;;;;;;;4.68;54.45;100176.20;1759334;80;21411;-64
2022/03/06 00:30:05;;;;;;;2.47;2.10;;;;;;;4.67;54.36;100171.44;1755732;80;21472;-64
2022/03/06 00:32:32;;;;;;;2.47;2.27;;;;;;;4.63;54.46;100168.44;1735244;80;21092;-64
2022/03/06 00:34:59;;;;;;;2.87;2.27;;;;;;;4.72;54.36;100176.58;1747469;80;21581;-64
2022/03/06 00:37:26;;;;;;;2.93;2.33;;;;;;;4.74;54.42;100177.42;1746254;80;22904;-64
2022/03/06 00:39:54;;;;;;;1.90;1.77;;;;;;;4.82;54.46;100177.34;1744310;80;21351;-65
2022/03/06 00:42:20;;;;;;;2.37;2.17;;;;;;;4.79;54.42;100176.09;1745863;79;20986;-64
2022/03/06 00:44:48;;;;;;;2.50;1.90;;;;;;;4.82;54.33;100173.44;1744607;80;21408;-64
2022/03/06 00:47:14;;;;;;;3.33;2.65;;;;;;;4.83;54.51;100169.96;1752309;80;21514;-65
2022/03/06 00:49:43;;;;;;;2.65;1.87;;;;;;;4.81;54.33;100169.12;1746703;80;22503;-63
2022/03/06 00:52:09;;;;;;;3.12;2.22;;;;;;;4.79;54.40;100169.58;1749409;80;21446;-64
2022/03/06 00:54:37;;;;;;;3.40;2.30;;;;;;;4.84;54.39;100169.06;1755470;80;20962;-64
2022/03/06 00:57:05;;;;;;;2.85;2.17;;;;;;;4.82;54.26;100170.83;1756142;80;21340;-64
2022/03/06 00:59:34;;;;;;;2.60;2.40;;;;;;;4.80;54.26;100170.87;1748795;80;21620;-64
2022/03/06 01:02:02;;;;;;;2.15;1.95;;;;;;;4.73;54.21;100172.22;1753821;79;22858;-63
2022/03/06 01:04:29;;;;;;;3.08;2.40;;;;;;;4.73;54.41;100165.71;1750753;80;20871;-63
2022/03/06 01:06:56;;;;;;;2.72;1.98;;;;;;;4.70;54.57;100164.46;1756735;80;21434;-63
2022/03/06 01:09:23;;;;;;;2.92;1.82;;;;;;;4.74;54.35;100173.52;1757573;80;21456;-62
2022/03/06 01:11:51;;;;;;;2.08;1.80;;;;;;;4.71;54.18;100170.97;1751997;80;21422;-63
2022/03/06 01:14:19;;;;;;;2.65;2.20;;;;;;;4.76;54.15;100177.41;1716051;82;22689;-63
2022/03/06 01:16:46;;;;;;;2.10;1.87;;;;;;;4.69;54.16;100172.72;1746936;80;21453;-63
2022/03/06 01:19:12;;;;;;;2.10;1.90;;;;;;;4.73;54.09;100173.11;1760773;80;20922;-64
2022/03/06 01:21:40;;;;;;;2.52;2.20;;;;;;;4.71;53.99;100180.50;1747560;80;21589;-64
2022/03/06 01:24:07;;;;;;;1.75;1.47;;;;;;;4.75;53.90;100179.61;1757198;79;21632;-63
2022/03/06 01:26:35;;;;;;;2.87;2.30;;;;;;;4.70;53.95;100181.39;1753875;80;22479;-63
2022/03/06 01:29:02;;;;;;;2.85;2.12;;;;;;;4.72;53.89;100183.54;1759363;80;21448;-63
2022/03/06 01:31:29;;;;;;;2.70;1.70;;;;;;;4.66;53.94;100184.02;1761224;80;21423;-64
2022/03/06 01:33:56;;;;;;;3.45;2.27;;;;;;;4.67;54.02;100187.48;1755899;80;21483;-64
2022/03/06 01:36:23;;;;;;;3.20;2.40;;;;;;;4.63;54.10;100184.06;1756634;80;21377;-62
2022/03/06 01:38:50;;;;;;;3.05;2.33;;;;;;;4.59;54.27;100182.34;1753826;80;22635;-63
2022/03/06 01:41:17;;;;;;;4.10;2.50;;;;;;;4.50;54.40;100185.03;1753568;80;21676;-63
2022/03/06 01:43:44;;;;;;;3.25;2.65;;;;;;;4.52;54.53;100190.23;1756099;80;21435;-63
2022/03/06 01:46:13;;;;;;;2.52;2.33;;;;;;;4.48;54.65;100188.98;1754610;80;21492;-63
2022/03/06 01:48:40;;;;;;;3.80;2.90;;;;;;;4.53;54.69;100190.23;1767669;80;21473;-62
2022/03/06 01:51:07;;;;;;;5.90;3.30;;;;;;;4.53;54.57;100181.56;1760439;80;22540;-62
2022/03/06 01:53:34;;;;;;;5.70;2.60;;;;;;;4.57;54.42;100188.45;1751651;80;21467;-62
2022/03/06 01:56:01;;;;;;;3.75;2.55;;;;;;;4.56;54.48;100183.70;1747979;80;21434;-62
2022/03/06 01:58:28;;;;;;;4.25;2.50;;;;;;;4.60;54.46;100184.53;1744503;80;21560;-62
2022/03/06 02:00:54;;;;;;;4.47;3.30;;;;;;;4.59;54.42;100182.80;1749259;80;21366;-63
2022/03/06 02:03:22;;;;;;;3.67;3.22;;;;;;;4.61;54.30;100182.34;1746482;80;22499;-62
2022/03/06 02:05:49;;;;;;;4.07;3.17;;;;;;;4.51;54.36;100184.17;1753044;80;21619;-65
2022/03/06 02:08:17;;;;;;;3.55;2.92;;;;;;;4.52;54.38;100193.73;1746352;80;21452;-65
2022/03/06 02:10:44;;;;;;;4.35;3.40;;;;;;;4.48;54.44;100185.49;1749654;80;21455;-65
2022/03/06 02:13:11;;;;;;;5.37;3.13;;;;;;;4.52;54.43;100188.52;1743582;80;21430;-65
2022/03/06 02:15:38;;;;;;;4.17;2.80;;;;;;;4.48;54.39;100183.77;1749566;80;21926;-65
2022/03/06 02:18:05;;;;;;;4.10;3.10;;;;;;;4.48;54.37;100186.80;1747571;80;21498;-65
2022/03/06 02:20:32;;;;;;;3.50;2.98;;;;;;;4.46;54.44;100186.83;1740584;80;21572;-65
2022/03/06 02:22:59;;;;;;;3.57;3.07;;;;;;;4.44;54.24;100187.26;1753076;80;21468;-65
2022/03/06 02:25:29;;;;;;;3.12;2.83;;;;;;;4.41;54.28;100179.94;1747857;80;20953;-66
2022/03/06 02:27:57;;;;;;;3.95;2.95;;;;;;;4.36;54.41;100180.41;1749351;80;22531;-65
2022/03/06 02:30:28;;;;;;;4.25;2.70;;;;;;;4.35;54.63;100187.78;1740939;80;21540;-62
2022/03/06 02:32:57;;;;;;;4.00;3.17;;;;;;;4.36;54.58;100186.47;1750669;80;21493;-62
2022/03/06 02:35:25;;;;;;;4.50;2.75;;;;;;;4.36;54.56;100190.38;1732102;79;21438;-62
2022/03/06 02:37:51;;;;;;;5.28;3.75;;;;;;;4.36;54.47;100194.73;1754391;80;21498;-62
2022/03/06 02:40:19;;;;;;;4.50;3.52;;;;;;;4.35;54.49;100192.98;1738524;80;22623;-62
2022/03/06 02:42:47;;;;;;;4.25;3.62;;;;;;;4.30;54.36;100196.95;1755211;80;21411;-62
2022/03/06 02:45:19;;;;;;;3.90;3.50;;;;;;;4.18;54.55;100192.71;1749140;80;21544;-62
2022/03/06 02:47:46;;;;;;;3.77;2.98;;;;;;;4.11;54.86;100197.53;1737712;80;21469;-62
2022/03/06 02:50:16;;;;;;;4.67;3.23;;;;;;;4.14;55.02;100196.19;1755881;80;22210;-62
2022/03/06 02:52:43;;;;;;;3.92;3.42;;;;;;;4.12;55.05;100190.14;1745613;80;21896;-61
2022/03/06 02:55:11;;;;;;;3.77;3.20;;;;;;;4.11;55.19;100192.33;1753163;80;21454;-62
2022/03/06 02:57:38;;;;;;;3.67;3.33;;;;;;;4.09;55.27;100191.48;1749157;80;20891;-62
2022/03/06 03:00:08;;;;;;;4.00;2.97;;;;;;;4.09;55.19;100187.58;1741558;80;21432;-62
2022/03/06 03:02:35;;;;;;;4.92;3.50;;;;;;;4.13;55.23;100189.72;1694995;82;21511;-62
2022/03/06 03:05:04;;;;;;;3.67;3.20;;;;;;;4.10;55.11;100195.34;1748136;80;22598;-61
2022/03/06 03:07:31;;;;;;;4.45;3.52;;;;;;;4.09;55.01;100194.08;1754929;80;21008;-62
2022/03/06 03:09:58;;;;;;;3.73;2.97;;;;;;;4.06;55.01;100197.55;1761075;80;20946;-62
2022/03/06 03:12:25;;;;;;;5.23;3.37;;;;;;;4.05;54.87;100194.95;1749311;80;21427;-63
2022/03/06 03:14:51;;;;;;;3.58;3.17;;;;;;;4.01;54.90;100191.54;1753828;80;21714;-63
2022/03/06 03:17:18;;;;;;;4.05;3.30;;;;;;;4.04;54.84;100199.75;1744743;80;22880;-62
2022/03/06 03:19:46;;;;;;;5.58;3.60;;;;;;;4.04;54.83;100197.14;1748954;80;20938;-62
2022/03/06 03:22:13;;;;;;;2.83;2.53;;;;;;;4.07;54.74;100197.99;1758378;80;21553;-62
2022/03/06 03:24:39;;;;;;;3.77;3.17;;;;;;;4.05;54.73;100200.16;1754527;80;21428;-62
2022/03/06 03:27:07;;;;;;;3.73;2.60;;;;;;;4.08;54.61;100198.40;1751669;80;21080;-61
2022/03/06 03:29:33;;;;;;;6.65;3.67;;;;;;;4.10;54.64;100199.70;1747325;80;22497;-63
2022/03/06 03:32:00;;;;;;;5.05;3.65;;;;;;;4.03;54.53;100202.80;1750763;80;21656;-63
2022/03/06 03:34:28;;;;;;;3.97;3.27;;;;;;;3.98;54.65;100202.41;1739943;80;21461;-63
2022/03/06 03:36:54;;;;;;;4.33;3.40;;;;;;;3.94;54.65;100206.77;1753246;80;21515;-63
2022/03/06 03:39:22;;;;;;;5.20;3.17;;;;;;;3.93;54.77;100208.92;1757888;80;21415;-63
2022/03/06 03:41:48;;;;;;;5.10;3.58;;;;;;;3.88;54.90;100209.38;1748200;80;22489;-63
2022/03/06 03:44:15;;;;;;;6.07;3.40;;;;;;;3.86;54.96;100213.31;1741008;80;21490;-63
2022/03/06 03:46:42;;;;;;;5.30;3.47;;;;;;;3.86;55.05;100216.33;1751914;80;21800;-63
2022/03/06 03:49:09;;;;;;;5.70;4.00;;;;;;;3.86;55.05;100212.02;1751274;80;21625;-63
2022/03/06 03:51:36;;;;;;;3.85;3.45;;;;;;;3.85;55.12;100208.97;1739717;80;21522;-63
2022/03/06 03:54:03;;;;;;;4.58;3.37;;;;;;;3.83;55.10;100204.66;1738981;80;22571;-64
2022/03/06 03:56:31;;;;;;;6.53;3.62;;;;;;;3.84;55.15;100212.47;1753535;80;21560;-64
2022/03/06 03:58:58;;;;;;;4.67;3.62;;;;;;;3.80;55.25;100212.03;1757017;80;20871;-64
2022/03/06 04:01:25;;;;;;;6.35;3.62;;;;;;;3.82;55.25;100206.83;1749131;80;21548;-65
2022/03/06 04:03:52;;;;;;;4.87;3.72;;;;;;;3.85;55.29;100201.17;1759550;80;21401;-65
2022/03/06 04:06:19;;;;;;;6.28;3.67;;;;;;;3.87;55.08;100203.32;1759591;80;21554;-64
2022/03/06 04:08:47;;;;;;;4.50;3.50;;;;;;;3.86;55.12;100205.52;1760167;80;20965;-64
2022/03/06 04:11:14;;;;;;;4.42;3.67;;;;;;;3.93;55.00;100209.37;1756924;80;21461;-63
2022/03/06 04:13:42;;;;;;;3.83;3.42;;;;;;;3.96;54.99;100208.06;1752013;80;21332;-63
2022/03/06 04:16:10;;;;;;;4.67;3.77;;;;;;;3.97;54.81;100217.58;1752913;80;21541;-62
2022/03/06 04:18:37;;;;;;;5.23;3.93;;;;;;;3.93;54.95;100215.42;1746002;80;21946;-63
2022/03/06 04:21:04;;;;;;;4.30;3.83;;;;;;;3.90;54.87;100214.17;1748393;80;21031;-62
2022/03/06 04:23:31;;;;;;;5.17;3.58;;;;;;;3.91;54.93;100219.78;1754880;80;20934;-62
2022/03/06 04:25:57;;;;;;;4.93;4.27;;;;;;;3.88;54.80;100216.77;1760441;80;21333;-62
2022/03/06 04:28:24;;;;;;;5.90;3.80;;;;;;;3.92;54.76;100225.84;1756900;80;20895;-62
2022/03/06 04:30:51;;;;;;;4.83;3.50;;;;;;;3.93;54.80;100221.08;1744142;80;22484;-62
2022/03/06 04:33:18;;;;;;;4.35;3.83;;;;;;;3.93;54.65;100225.84;1751275;80;21530;-62
2022/03/06 04:35:45;;;;;;;7.95;4.20;;;;;;;3.90;54.72;100225.88;1745874;80;21430;-62
2022/03/06 04:38:12;;;;;;;4.95;3.75;;;;;;;3.88;54.58;100225.88;1748777;80;21442;-63
2022/03/06 04:40:38;;;;;;;5.10;4.05;;;;;;;3.90;54.49;100230.63;1748890;79;21490;-61
2022/03/06 04:43:05;;;;;;;4.97;4.22;;;;;;;3.90;54.47;100228.48;1750842;80;22603;-62
2022/03/06 04:45:32;;;;;;;6.37;4.50;;;;;;;3.95;54.41;100227.13;1757854;80;21601;-62
2022/03/06 04:47:59;;;;;;;5.60;4.62;;;;;;;3.96;54.29;100234.08;1769253;80;21362;-61
2022/03/06 04:50:26;;;;;;;7.72;4.80;;;;;;;3.99;54.18;100237.94;1754436;80;21458;-61
2022/03/06 04:52:53;;;;;;;6.65;4.67;;;;;;;4.01;54.11;100239.68;1761440;80;21564;-61
2022/03/06 04:55:19;;;;;;;6.87;4.45;;;;;;;4.07;54.06;100234.42;1756561;80;22640;-62
2022/03/06 04:57:47;;;;;;;6.22;5.05;;;;;;;4.10;54.06;100240.03;1761435;80;20949;-61
2022/03/06 05:00:15;;;;;;;8.20;5.10;;;;;;;4.16;54.01;100242.59;1755361;80;21394;-62
2022/03/06 05:02:43;;;;;;;9.85;5.42;;;;;;;4.19;53.81;100245.62;1759966;80;20941;-62
2022/03/06 05:05:09;;;;;;;7.67;5.10;;;;;;;4.20;53.66;100244.32;1767090;80;21497;-63
2022/03/06 05:07:37;;;;;;;6.50;5.37;;;;;;;4.22;53.69;100238.66;1758369;80;22567;-63
2022/03/06 05:10:09;;;;;;;10.95;7.47;;;;;;;4.26;53.76;100242.97;1752835;80;21459;-62
2022/03/06 05:12:38;;;;;;;18.35;11.00;;;;;;;4.32;53.69;100240.75;1759606;80;21458;-62
2022/03/06 05:15:06;;;;;;;19.17;10.30;;;;;;;4.31;53.57;100244.22;1762657;80;21367;-64
2022/03/06 05:17:34;;;;;;;17.32;10.23;;;;;;;4.35;53.58;100243.76;1747059;80;21522;-61
2022/03/06 05:20:01;;;;;;;18.10;10.03;;;;;;;4.40;53.73;100244.59;1761635;80;21502;-61
2022/03/06 05:22:29;;;;;;;14.45;9.33;;;;;;;4.46;53.81;100244.13;1742296;80;21406;-61
2022/03/06 05:24:58;;;;;;;15.23;8.93;;;;;;;4.55;53.70;100241.00;1757690;80;21467;-61
2022/03/06 05:27:26;;;;;;;11.88;8.78;;;;;;;4.58;53.65;100243.14;1760555;80;21387;-61
2022/03/06 05:29:52;;;;;;;13.65;9.20;;;;;;;4.65;53.52;100247.43;1760281;80;21427;-62
2022/03/06 05:32:19;;;;;;;13.72;8.93;;;;;;;4.73;53.23;100242.14;1756406;80;22475;-61
2022/03/06 05:34:46;;;;;;;14.25;9.88;;;;;;;4.77;53.02;100245.14;1755759;80;21009;-61
2022/03/06 05:37:13;;;;;;;13.70;8.88;;;;;;;4.75;52.35;100241.69;1753968;80;21519;-64
2022/03/06 05:39:39;;;;;;;14.30;8.78;;;;;;;4.75;52.64;100244.74;1751623;80;21546;-64
2022/03/06 05:42:07;;;;;;;12.80;9.63;;;;;;;4.77;52.57;100246.45;1754540;80;21539;-66
2022/03/06 05:44:35;;;;;;;12.28;9.70;;;;;;;4.81;52.82;100245.98;1749756;80;21445;-64
2022/03/06 05:47:02;;;;;;;15.00;9.65;;;;;;;4.88;53.01;100242.44;1722825;80;21541;-64
2022/03/06 05:49:29;;;;;;;16.73;8.93;;;;;;;4.92;52.59;100248.04;1766225;80;21459;-64
2022/03/06 05:51:56;;;;;;;14.75;8.58;;;;;;;4.91;52.31;100244.14;1753569;80;21483;-63
2022/03/06 05:54:23;;;;;;;14.73;8.93;;;;;;;4.91;52.67;100246.30;1747008;80;21371;-64
2022/03/06 05:56:50;;;;;;;14.17;8.17;;;;;;;4.95;52.52;100248.44;1756271;80;22628;-63
2022/03/06 05:59:17;;;;;;;16.17;9.35;;;;;;;4.95;52.55;100249.29;1743222;80;21434;-63
2022/03/06 06:01:43;;;;;;;16.57;9.95;;;;;;;4.99;52.51;100245.80;1752567;80;21647;-63
2022/03/06 06:04:12;;;;;;;15.72;9.88;;;;;;;4.95;52.39;100245.83;1754541;80;21075;-63
2022/03/06 06:06:40;;;;;;;14.58;9.23;;;;;;;4.91;52.53;100245.00;1744465;80;21502;-63
2022/03/06 06:09:07;;;;;;;12.00;7.92;;;;;;;4.97;52.56;100247.56;1752251;80;22492;-65
2022/03/06 06:11:35;;;;;;;16.50;8.90;;;;;;;4.95;52.49;100246.69;1743501;80;21132;-63
2022/03/06 06:14:03;;;;;;;8.13;5.60;;;;;;;4.99;52.44;100246.22;1744583;80;21503;-62
2022/03/06 06:16:32;;;;;;;7.50;5.85;;;;;;;4.99;52.14;100254.92;1738332;80;20946;-63
2022/03/06 06:18:59;;;;;;;7.35;5.37;;;;;;;4.97;51.86;100252.78;1750087;80;22098;-64
2022/03/06 06:21:25;;;;;;;8.85;6.53;;;;;;;4.98;51.87;100256.23;1739654;80;23037;-63
2022/03/06 06:23:54;;;;;;;9.10;5.37;;;;;;;5.03;52.12;100251.85;1745358;80;21409;-67
2022/03/06 06:26:20;;;;;;;5.95;4.80;;;;;;;5.03;51.88;100259.67;1747035;80;21589;-68
2022/03/06 06:28:52;;;;;;;5.07;3.63;;;;;;;5.11;51.79;100255.67;1749607;80;21575;-64
2022/03/06 06:31:16;;;;;;;6.42;4.03;;;;;;;5.11;51.51;100259.59;1742786;80;21529;-63
2022/03/06 06:33:43;;;;;;;4.10;3.70;;;;;;;5.12;55.74;100260.84;1744976;80;22459;-63
2022/03/06 06:36:10;;;;;;;4.25;3.50;;;;;;;5.11;51.75;100256.98;1754578;80;21001;-63
2022/03/06 06:38:37;;;;;;;4.93;3.87;;;;;;;5.11;51.30;100258.28;1743968;80;21313;-63
2022/03/06 06:41:04;;;;;;;4.92;4.00;;;;;;;5.09;51.70;100269.17;1743140;80;21406;-63
2022/03/06 06:43:31;;;;;;;;;;;;;;;5.20;51.82;100262.95;1753740;80;21554;-64
2022/03/06 06:45:59;;;;;;;5.10;3.25;;;;;;;5.23;51.96;100262.05;1749424;80;22506;-64
2022/03/06 06:48:26;;;;;;;4.00;3.25;;;;;;;5.34;51.91;100268.45;1741511;80;21392;-64
2022/03/06 06:50:53;;;;;;;5.05;3.50;;;;;;;5.39;51.79;100268.82;1747892;80;21571;-64
2022/03/06 06:53:19;;;;;;;5.25;3.22;;;;;;;5.40;51.43;100267.06;1743394;80;21878;-63
2022/03/06 06:55:46;;;;;;;4.40;3.98;;;;;;;5.39;51.10;100269.27;1750883;80;21554;-64
2022/03/06 06:58:13;;;;;;;4.80;3.77;;;;;;;5.47;51.21;100277.86;1758218;80;22509;-64
2022/03/06 07:00:42;;;;;;;4.10;3.70;;;;;;;5.52;51.12;100272.56;1749813;80;20937;-63
2022/03/06 07:03:09;;;;;;;3.65;3.35;;;;;;;5.59;50.86;100271.17;1725541;80;21509;-63
2022/03/06 07:05:35;;;;;;;6.45;4.00;;;;;;;5.63;50.78;100270.27;1742737;80;21487;-64
2022/03/06 07:08:03;;;;;;;5.22;3.62;;;;;;;5.67;49.74;100275.02;1749025;80;21514;-63
2022/03/06 07:10:30;;;;;;;5.33;3.90;;;;;;;5.71;49.91;100267.98;1759035;80;21675;-65
2022/03/06 07:12:58;;;;;;;4.80;3.58;;;;;;;5.76;49.84;100267.04;1691264;83;21514;-64
2022/03/06 07:15:32;;;;;;;4.05;3.45;;;;;;;5.77;50.01;100267.48;1721959;82;21403;-64
2022/03/06 07:18:00;;;;;;;5.47;3.45;;;;;;;5.77;50.05;100259.65;1760910;80;21324;-64
2022/03/06 07:20:28;;;;;;;5.37;3.10;;;;;;;5.81;50.35;100260.02;1752516;80;21594;-63
2022/03/06 07:22:55;;;;;;;3.37;2.95;;;;;;;5.95;49.86;100262.50;1748446;80;22826;-63
2022/03/06 07:25:22;;;;;;;4.33;3.58;;;;;;;6.07;49.38;100263.20;1758530;80;21541;-64
2022/03/06 07:27:49;;;;;;;5.08;3.17;;;;;;;6.18;49.21;100259.55;1758796;80;21585;-66
2022/03/06 07:30:16;;;;;;;4.05;3.30;;;;;;;6.23;49.18;100257.73;1758889;80;21432;-64
2022/03/06 07:32:47;;;;;;;3.75;3.22;;;;;;;6.32;49.03;100257.16;1767853;80;21437;-67
2022/03/06 07:35:14;;;;;;;3.47;3.15;;;;;;;6.40;49.26;100252.67;1748478;80;22510;-67
2022/03/06 07:37:42;;;;;;;;;;;;;;;6.41;49.10;100251.34;1747943;80;21425;-69
2022/03/06 07:40:10;;;;;;;3.20;2.90;;;;;;;6.42;48.50;100251.78;1756405;80;20524;-67
2022/03/06 07:42:37;;;;;;;3.65;3.02;;;;;;;6.41;48.79;100257.02;1758785;80;21375;-67
2022/03/06 07:45:05;;;;;;;5.17;3.90;;;;;;;6.43;48.42;100256.09;1747010;80;21339;-66
2022/03/06 07:47:33;;;;;;;4.35;3.17;;;;;;;6.41;48.43;100256.57;1748075;80;23545;-67
2022/03/06 07:50:00;;;;;;;5.97;3.90;;;;;;;6.28;48.57;100259.41;1748034;80;21392;-67
2022/03/06 07:52:27;;;;;;;4.77;3.50;;;;;;;6.28;48.57;100259.41;1755092;80;21454;-67
2022/03/06 07:54:54;;;;;;;4.17;3.77;;;;;;;6.27;48.65;100258.52;1749980;80;21486;-67
2022/03/06 07:57:21;;;;;;;5.37;4.17;;;;;;;6.28;47.99;100256.34;1756051;80;21514;-67
2022/03/06 07:59:49;;;;;;;4.78;4.37;;;;;;;6.24;48.46;100259.45;1747486;80;22501;-68
2022/03/06 08:02:16;;;;;;;4.80;3.67;;;;;;;6.29;48.79;100254.17;1754861;80;21633;-67
2022/03/06 08:04:43;;;;;;;4.85;3.70;;;;;;;6.40;48.76;100249.64;1693172;82;20911;-66
2022/03/06 08:07:10;;;;;;;7.03;4.60;;;;;;;6.55;48.99;100254.17;1755018;80;21496;-66
2022/03/06 08:09:37;;;;;;;6.62;4.17;;;;;;;6.69;48.76;100236.98;1765943;80;20874;-65
2022/03/06 08:12:05;;;;;;;6.17;3.90;;;;;;;6.79;48.29;100233.30;1753457;80;22532;-66
2022/03/06 08:14:33;;;;;;;7.78;4.70;;;;;;;6.93;48.53;100235.23;1751675;80;21485;-65
2022/03/06 08:17:00;;;;;;;4.13;3.73;;;;;;;7.01;48.10;100231.16;1750578;80;21491;-65
2022/03/06 08:19:27;;;;;;;7.42;5.05;;;;;;;7.01;47.26;100233.32;1757425;80;21430;-66
2022/03/06 08:21:53;;;;;;;7.25;4.92;;;;;;;19.44;100.00;100205.70;1752572;80;20941;-66
2022/03/06 08:24:20;;;;;;;5.55;4.80;;;;;;;9.99;87.20;100229.47;1752015;80;22464;-64
2022/03/06 08:26:47;;;;;;;5.35;4.50;;;;;;;8.73;48.29;100230.42;1760433;80;21308;-63
2022/03/06 08:29:13;;;;;;;5.33;4.83;;;;;;;8.48;46.27;100226.27;1757513;80;21411;-64
2022/03/06 08:31:40;;;;;;;7.55;5.10;;;;;;;7.91;46.21;100228.86;1745380;80;21546;-64
2022/03/06 08:34:08;;;;;;;5.85;5.25;;;;;;;7.58;46.08;100225.64;1761524;80;21565;-64
2022/03/06 08:36:36;;;;;;;6.97;5.10;;;;;;;7.36;45.97;100231.76;1752653;80;22547;-63
2022/03/06 08:39:03;;;;;;;7.95;5.30;;;;;;;7.31;46.17;100224.89;1745577;80;20993;-63
2022/03/06 08:41:30;;;;;;;;;;;;;;;7.36;46.21;100223.91;1755056;80;21662;-68
2022/03/06 08:43:57;;;;;;;5.22;4.65;;;;;;;7.47;46.12;100219.77;1749039;80;21056;-67
2022/03/06 08:46:23;;;;;;;5.73;4.93;;;;;;;7.50;44.79;100224.95;1762629;80;21549;-68
2022/03/06 08:48:51;;;;;;;6.12;5.30;;;;;;;7.49;44.73;100219.29;1747792;80;21652;-66
2022/03/06 08:51:18;;;;;;;7.40;5.23;;;;;;;7.50;45.12;100221.48;1758524;80;21536;-68
2022/03/06 08:53:44;;;;;;;6.12;4.72;;;;;;;7.43;44.89;100226.42;1753808;80;21049;-68
2022/03/06 08:56:25;;;;;;;6.28;4.47;;;;;;;7.32;45.27;100227.94;1757614;80;21425;-68
2022/03/06 08:58:52;;;;;;;6.05;4.33;;;;;;;7.25;45.77;100224.57;1755300;80;21472;-65
2022/03/06 09:01:18;;;;;;;5.00;4.00;;;;;;;7.15;44.71;100214.73;1762913;80;22475;-68
2022/03/06 09:03:45;;;;;;;5.55;4.42;;;;;;;7.01;44.47;100220.25;1754402;79;21450;-65
2022/03/06 09:06:13;;;;;;;7.62;4.67;;;;;;;6.90;44.81;100219.59;1752974;80;21528;-64
2022/03/06 09:08:41;;;;;;;4.90;4.22;;;;;;;6.81;44.54;100225.84;1748051;80;21419;-65
2022/03/06 09:11:39;;;;;;;5.70;4.58;;;;;;;6.79;44.62;100220.23;1747947;80;21550;-65
2022/03/06 09:14:09;;;;;;;5.47;4.05;;;;;;;7.18;44.15;100217.77;1735241;80;21594;-64
2022/03/06 09:16:37;;;;;;;5.90;4.70;;;;;;;6.78;44.32;100218.07;1757991;79;21475;-63
2022/03/06 09:19:04;;;;;;;;;;;;;;;6.79;44.39;100209.77;1756183;80;21550;-64
2022/03/06 09:21:31;;;;;;;6.37;3.80;;;;;;;6.85;44.36;100211.41;1750812;80;20837;-65
2022/03/06 09:23:59;;;;;;;4.83;4.33;;;;;;;6.74;43.52;100215.09;1748214;80;21506;-65
2022/03/06 09:26:29;;;;;;;;;;;;;;;6.73;43.69;100212.05;1756482;79;22416;-66
2022/03/06 09:28:59;;;;;;;6.70;4.75;;;;;;;6.69;43.54;100210.84;1749494;80;20865;-65
2022/03/06 09:31:26;;;;;;;5.60;5.00;;;;;;;6.62;43.53;100215.30;1744695;80;21466;-64
2022/03/06 09:33:54;;;;;;;25.02;22.60;;;;;;;6.60;43.69;100215.78;1749521;80;21493;-65
2022/03/06 09:36:23;;;;;;;47.77;43.00;;;;;;;6.56;43.49;100215.42;1755665;80;21408;-64
2022/03/06 09:38:50;;;;;;;9.48;7.62;;;;;;;6.57;43.67;100220.63;1751387;80;22399;-66
2022/03/06 09:41:23;;;;;;;7.50;6.05;;;;;;;6.51;43.69;100222.01;1750011;80;21403;-66
2022/03/06 09:43:50;;;;;;;13.40;8.55;;;;;;;6.46;43.73;100213.41;1754385;80;21446;-65
2022/03/06 09:46:18;;;;;;;13.50;9.65;;;;;;;6.41;43.90;100213.92;1758484;79;21403;-66
2022/03/06 09:48:45;;;;;;;9.05;6.37;;;;;;;6.63;43.22;100215.28;1758901;80;21387;-66
2022/03/06 09:51:13;;;;;;;;;;;;;;;6.58;43.09;100209.27;1749323;80;22466;-66
2022/03/06 09:53:40;;;;;;;16.70;10.10;;;;;;;6.28;43.45;100213.70;1749462;80;20707;-67
2022/03/06 09:56:08;;;;;;;22.98;17.05;;;;;;;6.15;43.75;100212.58;1752875;80;21549;-67
2022/03/06 09:58:35;;;;;;;10.03;7.35;;;;;;;6.09;43.34;100210.07;1749835;80;21505;-67
2022/03/06 10:01:02;;;;;;;19.60;13.25;;;;;;;6.05;43.52;100208.41;1748740;79;21342;-67
2022/03/06 10:03:35;;;;;;;540.77;364.47;;;;;;;6.07;43.34;100204.47;1748136;81;22540;-66
2022/03/06 10:06:05;;;;;;;68.42;40.85;;;;;;;6.08;43.33;100200.95;1752860;81;21320;-66
2022/03/06 10:08:35;;;;;;;21.10;13.22;;;;;;;6.03;43.26;100198.43;1650617;84;21446;-66
2022/03/06 10:11:05;;;;;;;279.30;203.20;;;;;;;5.98;43.27;100203.70;1645632;86;21447;-65
2022/03/06 10:13:42;;;;;;;24.75;16.55;;;;;;;5.97;43.48;100195.47;1652568;85;21543;-65
2022/03/06 10:16:12;;;;;;;9.50;6.15;;;;;;;5.97;43.71;100199.38;1639448;86;21601;-64
2022/03/06 10:18:53;;;;;;;6.50;4.62;;;;;;;5.94;43.01;100193.31;1653215;85;21621;-65
2022/03/06 10:21:30;;;;;;;327.93;220.00;;;;;;;5.95;43.23;100193.71;1650572;84;21491;-66
2022/03/06 10:23:59;;;;;;;23.77;14.55;;;;;;;5.99;42.76;100196.72;1644813;86;21519;-66
2022/03/06 10:26:29;;;;;;;59.60;31.25;;;;;;;5.97;42.57;100190.25;1653628;85;21562;-64
2022/03/06 10:29:03;;;;;;;18.07;9.48;;;;;;;6.02;42.79;100188.86;1656891;85;22659;-64
2022/03/06 10:31:33;;;;;;;9.33;4.95;;;;;;;6.05;42.91;100187.52;1652248;85;21494;-65
2022/03/06 10:34:10;;;;;;;7.22;4.37;;;;;;;6.06;42.32;100185.30;1652203;86;21447;-66
2022/03/06 10:36:49;;;;;;;4.80;3.77;;;;;;;6.08;42.07;100180.06;1657022;84;21595;-66
2022/03/06 10:39:20;;;;;;;4.85;3.40;;;;;;;6.06;41.51;100178.78;1652298;85;21391;-65
2022/03/06 10:41:51;;;;;;;4.70;3.47;;;;;;;6.14;40.46;100178.23;1651844;84;21500;-64
2022/03/06 10:44:19;;;;;;;4.30;2.83;;;;;;;6.18;39.87;100177.30;1658259;85;21387;-64
2022/03/06 10:47:02;;;;;;;4.42;3.60;;;;;;;6.24;39.50;100169.80;1652774;85;21486;-65
2022/03/06 10:49:29;;;;;;;5.85;3.70;;;;;;;6.35;39.45;100170.48;1657071;85;21486;-63
2022/03/06 10:51:57;;;;;;;4.67;2.85;;;;;;;6.46;38.13;100171.61;1615531;87;21592;-66
2022/03/06 10:54:25;;;;;;;2.72;2.52;;;;;;;6.49;37.26;100175.91;1615753;87;22572;-65
2022/03/06 10:56:54;;;;;;;5.28;3.12;;;;;;;6.35;37.09;100171.79;1652532;85;21478;-65
2022/03/06 10:59:24;;;;;;;9.35;5.00;;;;;;;6.41;37.76;100166.91;1653828;85;21455;-65
2022/03/06 11:01:51;;;;;;;8.25;5.37;;;;;;;6.49;38.11;100171.54;1651980;85;21523;-66
2022/03/06 11:04:19;;;;;;;9.88;5.28;;;;;;;6.45;38.35;100168.57;1641381;86;21428;-66
2022/03/06 11:09:29;;;;;;;6.58;4.50;;;;;;;5.37;39.95;100168.88;1815527;77;22991;-63
2022/03/06 11:11:56;;;;;;;6.67;4.35;;;;;;;6.19;38.69;100163.33;1766613;79;21394;-63
2022/03/06 11:14:24;;;;;;;6.45;4.78;;;;;;;6.21;38.65;100160.25;1791078;78;22517;-65
2022/03/06 11:16:51;;;;;;;6.40;4.08;;;;;;;6.28;38.70;100157.56;1798478;79;28920;-64
2022/03/06 11:19:18;;;;;;;6.75;5.08;;;;;;;6.25;38.55;100161.06;1785666;79;21494;-65
2022/03/06 11:21:46;;;;;;;;;;;;;;;6.21;38.24;100160.70;1797767;78;21023;-64
2022/03/06 11:24:19;;;;;;;5.42;4.62;;;;;;;6.16;38.31;100155.57;1794440;78;20451;-65
2022/03/06 11:27:15;;;;;;;6.42;4.67;;;;;;;6.12;38.17;100155.63;1794958;78;22498;-64
2022/03/06 11:30:20;;;;;;;4.90;4.15;;;;;;;6.02;38.61;100156.23;1796688;78;21470;-64
2022/03/06 11:33:07;;;;;;;7.03;4.60;;;;;;;6.00;38.79;100152.33;1793003;78;21494;-65
2022/03/06 11:35:43;;;;;;;4.55;4.05;;;;;;;5.95;38.90;100149.34;1796101;78;21482;-65
2022/03/06 11:38:13;;;;;;;6.37;4.58;;;;;;;6.01;39.19;100150.61;1796605;78;21438;-64
2022/03/06 11:40:53;;;;;;;6.20;4.03;;;;;;;6.07;39.17;100142.66;1791928;77;21548;-64